createdAt,value
2016-05-29T00:00:39.917Z,1005.95
2016-05-29T00:01:44.435Z,1005.94
2016-05-29T00:02:39.829Z,1005.96
2016-05-29T00:03:39.784Z,1005.88
2016-05-29T00:04:39.740Z,1005.87
2016-05-29T00:05:39.696Z,1005.87
2016-05-29T00:06:39.652Z,1005.87
2016-05-29T00:07:42.607Z,1005.92
2016-05-29T00:08:39.548Z,1005.9
2016-05-29T00:09:39.504Z,1005.88
2016-05-29T00:10:39.459Z,1005.89
2016-05-29T00:11:39.415Z,1005.92
2016-05-29T00:12:39.370Z,1005.91
2016-05-29T00:13:39.328Z,1005.91
2016-05-29T00:14:39.283Z,1005.89
2016-05-29T00:15:39.238Z,1005.87
2016-05-29T00:16:39.194Z,1005.88
2016-05-29T00:17:39.150Z,1005.89
2016-05-29T00:18:39.091Z,1005.84
2016-05-29T00:19:42.062Z,1005.82
2016-05-29T00:20:39.017Z,1005.87
2016-05-29T00:21:39.161Z,1005.81
2016-05-29T00:22:38.914Z,1005.84
2016-05-29T00:23:38.869Z,1005.81
2016-05-29T00:24:38.825Z,1005.85
2016-05-29T00:25:38.781Z,1005.84
2016-05-29T00:26:38.737Z,1005.85
2016-05-29T00:27:38.693Z,1005.86
2016-05-29T00:28:38.632Z,1005.86
2016-05-29T00:29:38.588Z,1005.88
2016-05-29T00:30:38.544Z,1005.92
2016-05-29T00:31:41.501Z,1005.9
2016-05-29T00:32:38.456Z,1005.87
2016-05-29T00:33:41.443Z,1005.89
2016-05-29T00:34:38.368Z,1005.89
2016-05-29T00:35:38.324Z,1005.88
2016-05-29T00:36:38.279Z,1005.9
2016-05-29T00:37:38.235Z,1005.92
2016-05-29T00:38:38.175Z,1005.91
2016-05-29T00:39:38.193Z,1005.93
2016-05-29T00:40:38.103Z,1005.87
2016-05-29T00:41:38.059Z,1005.85
2016-05-29T00:42:41.014Z,1005.81
2016-05-29T00:43:40.970Z,1005.78
2016-05-29T00:44:37.911Z,1005.77
2016-05-29T00:45:40.850Z,1005.77
2016-05-29T00:46:37.822Z,1005.75
2016-05-29T00:47:37.778Z,1005.76
2016-05-29T00:48:40.733Z,1005.78
2016-05-29T00:49:37.689Z,1005.77
2016-05-29T00:50:37.630Z,1005.76
2016-05-29T00:51:37.600Z,1005.78
2016-05-29T00:52:37.558Z,1005.74
2016-05-29T00:53:37.513Z,1005.73
2016-05-29T00:54:37.672Z,1005.68
2016-05-29T00:55:40.424Z,1005.68
2016-05-29T00:56:37.364Z,1005.66
2016-05-29T00:57:37.320Z,1005.6
2016-05-29T00:58:37.277Z,1005.63
2016-05-29T00:59:40.232Z,1005.57
2016-05-29T01:00:37.203Z,1005.57
2016-05-29T01:01:37.144Z,1005.56
2016-05-29T01:02:37.084Z,1005.51
2016-05-29T01:03:37.055Z,1005.5
2016-05-29T01:04:36.995Z,1005.49
2016-05-29T01:05:36.951Z,1005.48
2016-05-29T01:06:36.907Z,1005.45
2016-05-29T01:07:36.863Z,1005.45
2016-05-29T01:08:36.818Z,1005.43
2016-05-29T01:09:36.774Z,1005.39
2016-05-29T01:10:36.730Z,1005.33
2016-05-29T01:11:36.686Z,1005.26
2016-05-29T01:12:36.626Z,1005.24
2016-05-29T01:13:36.597Z,1005.27
2016-05-29T01:14:36.741Z,1005.21
2016-05-29T01:15:36.494Z,1005.2
2016-05-29T01:16:36.465Z,1005.16
2016-05-29T01:17:36.405Z,1005.15
2016-05-29T01:18:36.361Z,1005.11
2016-05-29T01:19:36.317Z,1005.07
2016-05-29T01:20:39.288Z,1005.03
2016-05-29T01:21:39.244Z,1004.99
2016-05-29T01:22:36.388Z,1004.98
2016-05-29T01:23:36.155Z,1004.95
2016-05-29T01:24:36.096Z,1004.96
2016-05-29T01:25:36.036Z,1004.96
2016-05-29T01:26:35.992Z,1004.93
2016-05-29T01:27:35.947Z,1004.96
2016-05-29T01:28:35.904Z,1004.97
2016-05-29T01:29:35.860Z,1004.99
2016-05-29T01:30:35.816Z,1004.98
2016-05-29T01:31:35.771Z,1004.95
2016-05-29T01:32:35.727Z,1004.93
2016-05-29T01:33:35.683Z,1004.92
2016-05-29T01:34:38.638Z,1004.89
2016-05-29T01:35:35.579Z,1004.88
2016-05-29T01:36:35.551Z,1004.88
2016-05-29T01:37:35.506Z,1004.85
2016-05-29T01:38:35.446Z,1004.79
2016-05-29T01:39:35.605Z,1004.78
2016-05-29T01:40:35.357Z,1004.78
2016-05-29T01:41:35.314Z,1004.74
2016-05-29T01:42:35.270Z,1004.7
2016-05-29T01:43:35.225Z,1004.7
2016-05-29T01:44:38.181Z,1004.69
2016-05-29T01:45:38.137Z,1004.68
2016-05-29T01:46:35.093Z,1004.65
2016-05-29T01:47:35.033Z,1004.64
2016-05-29T01:48:34.989Z,1004.64
2016-05-29T01:49:34.944Z,1004.6
2016-05-29T01:50:34.900Z,1004.63
2016-05-29T01:51:37.872Z,1004.62
2016-05-29T01:52:34.811Z,1004.65
2016-05-29T01:53:34.752Z,1004.68
2016-05-29T01:54:34.708Z,1004.66
2016-05-29T01:55:34.679Z,1004.62
2016-05-29T01:56:34.619Z,1004.59
2016-05-29T01:57:34.575Z,1004.57
2016-05-29T01:58:34.530Z,1004.59
2016-05-29T01:59:34.488Z,1004.6
2016-05-29T02:00:34.443Z,1004.63
2016-05-29T02:01:34.414Z,1004.63
2016-05-29T02:02:34.354Z,1004.66
2016-05-29T02:03:34.294Z,1004.68
2016-05-29T02:04:43.266Z,1004.67
2016-05-29T02:05:37.332Z,1004.63
2016-05-29T02:06:34.163Z,1004.65
2016-05-29T02:07:43.133Z,1004.72
2016-05-29T02:08:34.074Z,1004.76
2016-05-29T02:09:34.030Z,1004.79
2016-05-29T02:10:34.032Z,1004.86
2016-05-29T02:11:33.940Z,1004.82
2016-05-29T02:12:33.929Z,1004.82
2016-05-29T02:13:33.853Z,1004.82
2016-05-29T02:14:33.793Z,1004.84
2016-05-29T02:15:33.748Z,1004.86
2016-05-29T02:16:33.704Z,1004.89
2016-05-29T02:17:33.661Z,1004.84
2016-05-29T02:18:33.617Z,1004.86
2016-05-29T02:19:33.572Z,1004.86
2016-05-29T02:20:33.528Z,1004.86
2016-05-29T02:21:33.483Z,1004.85
2016-05-29T02:22:33.439Z,1004.87
2016-05-29T02:23:33.395Z,1004.9
2016-05-29T02:24:33.350Z,1004.89
2016-05-29T02:25:33.291Z,1004.94
2016-05-29T02:26:36.247Z,1004.92
2016-05-29T02:27:33.203Z,1004.94
2016-05-29T02:28:33.158Z,1004.92
2016-05-29T02:29:33.114Z,1004.91
2016-05-29T02:30:33.071Z,1004.86
2016-05-29T02:31:33.010Z,1004.8
2016-05-29T02:32:33.169Z,1004.86
2016-05-29T02:33:32.938Z,1004.8
2016-05-29T02:34:32.878Z,1004.86
2016-05-29T02:35:32.834Z,1004.86
2016-05-29T02:36:32.790Z,1004.84
2016-05-29T02:37:32.745Z,1004.86
2016-05-29T02:38:35.717Z,1004.88
2016-05-29T02:39:32.657Z,1004.86
2016-05-29T02:40:32.628Z,1004.89
2016-05-29T02:41:32.569Z,1004.91
2016-05-29T02:42:32.524Z,1004.91
2016-05-29T02:43:32.465Z,1004.93
2016-05-29T02:44:32.420Z,1004.95
2016-05-29T02:45:32.392Z,1004.97
2016-05-29T02:46:32.332Z,1004.96
2016-05-29T02:47:32.287Z,1004.97
2016-05-29T02:48:32.245Z,1004.93
2016-05-29T02:49:32.184Z,1004.94
2016-05-29T02:50:35.156Z,1004.93
2016-05-29T02:51:35.095Z,1004.93
2016-05-29T02:52:32.050Z,1004.94
2016-05-29T02:53:32.008Z,1004.97
2016-05-29T02:54:31.963Z,1004.92
2016-05-29T02:55:31.903Z,1004.92
2016-05-29T02:56:34.874Z,1004.92
2016-05-29T02:57:31.815Z,1004.9
2016-05-29T02:58:31.771Z,1004.91
2016-05-29T02:59:34.741Z,1004.9
2016-05-29T03:00:34.698Z,1004.9
2016-05-29T03:01:31.638Z,1004.86
2016-05-29T03:02:31.594Z,1004.83
2016-05-29T03:03:31.534Z,1004.74
2016-05-29T03:04:31.505Z,1004.77
2016-05-29T03:05:31.446Z,1004.72
2016-05-29T03:06:31.401Z,1004.72
2016-05-29T03:07:31.357Z,1004.72
2016-05-29T03:08:31.313Z,1004.72
2016-05-29T03:09:31.269Z,1004.76
2016-05-29T03:10:31.224Z,1004.74
2016-05-29T03:11:31.181Z,1004.77
2016-05-29T03:12:31.121Z,1004.71
2016-05-29T03:13:31.076Z,1004.72
2016-05-29T03:14:31.048Z,1004.72
2016-05-29T03:15:30.988Z,1004.71
2016-05-29T03:16:30.945Z,1004.72
2016-05-29T03:17:30.900Z,1004.77
2016-05-29T03:18:30.855Z,1004.76
2016-05-29T03:19:30.811Z,1004.72
2016-05-29T03:20:30.767Z,1004.75
2016-05-29T03:21:30.723Z,1004.72
2016-05-29T03:22:30.678Z,1004.75
2016-05-29T03:23:30.620Z,1004.76
2016-05-29T03:24:30.575Z,1004.77
2016-05-29T03:25:30.733Z,1004.78
2016-05-29T03:26:30.487Z,1004.77
2016-05-29T03:27:30.442Z,1004.81
2016-05-29T03:28:30.398Z,1004.81
2016-05-29T03:29:30.354Z,1004.83
2016-05-29T03:30:30.294Z,1004.82
2016-05-29T03:31:30.250Z,1004.87
2016-05-29T03:32:30.205Z,1004.91
2016-05-29T03:33:30.161Z,1004.91
2016-05-29T03:34:30.118Z,1004.9
2016-05-29T03:35:30.073Z,1004.87
2016-05-29T03:36:30.029Z,1004.88
2016-05-29T03:37:29.985Z,1004.86
2016-05-29T03:38:29.925Z,1004.85
2016-05-29T03:39:29.912Z,1004.85
2016-05-29T03:40:29.837Z,1004.82
2016-05-29T03:41:29.793Z,1004.76
2016-05-29T03:42:29.748Z,1004.73
2016-05-29T03:43:29.704Z,1004.75
2016-05-29T03:44:29.660Z,1004.72
2016-05-29T03:45:29.615Z,1004.68
2016-05-29T03:46:29.571Z,1004.71
2016-05-29T03:47:29.528Z,1004.7
2016-05-29T03:48:29.467Z,1004.64
2016-05-29T03:49:29.423Z,1004.66
2016-05-29T03:50:32.786Z,1004.66
2016-05-29T03:51:32.351Z,1004.63
2016-05-29T03:52:29.291Z,1004.62
2016-05-29T03:53:29.247Z,1004.58
2016-05-29T03:54:29.203Z,1004.59
2016-05-29T03:55:29.142Z,1004.55
2016-05-29T03:56:29.114Z,1004.51
2016-05-29T03:57:29.055Z,1004.52
2016-05-29T03:58:29.010Z,1004.49
2016-05-29T03:59:31.981Z,1004.47
2016-05-29T04:00:28.921Z,1004.46
2016-05-29T04:01:28.878Z,1004.49
2016-05-29T04:02:28.833Z,1004.45
2016-05-29T04:03:28.788Z,1004.46
2016-05-29T04:04:28.933Z,1004.46
2016-05-29T04:05:28.967Z,1004.44
2016-05-29T04:06:28.641Z,1004.42
2016-05-29T04:07:28.596Z,1004.44
2016-05-29T04:08:28.553Z,1004.41
2016-05-29T04:09:28.508Z,1004.41
2016-05-29T04:10:31.464Z,1004.39
2016-05-29T04:11:31.420Z,1004.41
2016-05-29T04:12:28.376Z,1004.38
2016-05-29T04:13:28.316Z,1004.33
2016-05-29T04:14:28.287Z,1004.31
2016-05-29T04:15:28.228Z,1004.31
2016-05-29T04:16:28.184Z,1004.3
2016-05-29T04:17:28.139Z,1004.26
2016-05-29T04:18:28.298Z,1004.26
2016-05-29T04:19:28.051Z,1004.22
2016-05-29T04:20:28.007Z,1004.17
2016-05-29T04:21:27.962Z,1004.14
2016-05-29T04:22:27.903Z,1004.17
2016-05-29T04:23:28.062Z,1004.11
2016-05-29T04:24:36.830Z,1004.14
2016-05-29T04:25:27.786Z,1004.16
2016-05-29T04:26:27.725Z,1004.15
2016-05-29T04:27:27.682Z,1004.13
2016-05-29T04:28:27.638Z,1004.16
2016-05-29T04:29:27.593Z,1004.1
2016-05-29T04:30:30.549Z,1004.08
2016-05-29T04:31:27.505Z,1004.09
2016-05-29T04:32:27.445Z,1004.07
2016-05-29T04:33:30.401Z,1004.04
2016-05-29T04:34:36.373Z,1004.04
2016-05-29T04:35:27.328Z,1004
2016-05-29T04:36:27.347Z,1003.99
2016-05-29T04:37:27.224Z,1003.99
2016-05-29T04:38:27.179Z,1003.95
2016-05-29T04:39:27.121Z,1003.9
2016-05-29T04:40:27.076Z,1003.9
2016-05-29T04:41:27.032Z,1003.86
2016-05-29T04:42:26.987Z,1003.86
2016-05-29T04:43:26.944Z,1003.84
2016-05-29T04:44:26.899Z,1003.8
2016-05-29T04:45:26.854Z,1003.77
2016-05-29T04:46:26.812Z,1003.76
2016-05-29T04:47:29.767Z,1003.71
2016-05-29T04:48:26.723Z,1003.74
2016-05-29T04:49:26.866Z,1003.73
2016-05-29T04:50:26.618Z,1003.72
2016-05-29T04:51:26.793Z,1003.69
2016-05-29T04:52:26.545Z,1003.69
2016-05-29T04:53:26.533Z,1003.69
2016-05-29T04:54:26.442Z,1003.68
2016-05-29T04:55:26.398Z,1003.76
2016-05-29T04:56:26.353Z,1003.77
2016-05-29T04:57:26.309Z,1003.78
2016-05-29T04:58:26.250Z,1003.76
2016-05-29T04:59:26.221Z,1003.8
2016-05-29T05:00:26.177Z,1003.81
2016-05-29T05:01:26.117Z,1003.79
2016-05-29T05:02:26.089Z,1003.78
2016-05-29T05:03:26.028Z,1003.76
2016-05-29T05:04:25.985Z,1003.77
2016-05-29T05:05:25.940Z,1003.79
2016-05-29T05:06:25.896Z,1003.77
2016-05-29T05:07:25.852Z,1003.74
2016-05-29T05:08:25.807Z,1003.76
2016-05-29T05:09:28.764Z,1003.77
2016-05-29T05:10:25.719Z,1003.74
2016-05-29T05:11:25.660Z,1003.73
2016-05-29T05:12:25.615Z,1003.74
2016-05-29T05:13:25.571Z,1003.69
2016-05-29T05:14:25.543Z,1003.71
2016-05-29T05:15:25.482Z,1003.68
2016-05-29T05:16:25.439Z,1003.73
2016-05-29T05:17:25.395Z,1003.74
2016-05-29T05:18:25.351Z,1003.7
2016-05-29T05:19:25.306Z,1003.78
2016-05-29T05:20:25.261Z,1003.72
2016-05-29T05:21:25.781Z,1003.72
2016-05-29T05:22:25.173Z,1003.72
2016-05-29T05:23:25.129Z,1003.74
2016-05-29T05:24:25.069Z,1003.7
2016-05-29T05:25:25.042Z,1003.75
2016-05-29T05:26:25.044Z,1003.7
2016-05-29T05:27:24.936Z,1003.71
2016-05-29T05:28:24.893Z,1003.72
2016-05-29T05:29:24.848Z,1003.7
2016-05-29T05:30:27.820Z,1003.72
2016-05-29T05:31:24.760Z,1003.72
2016-05-29T05:32:24.716Z,1003.72
2016-05-29T05:33:24.672Z,1003.67
2016-05-29T05:34:24.627Z,1003.66
2016-05-29T05:35:24.833Z,1003.61
2016-05-29T05:36:24.539Z,1003.62
2016-05-29T05:37:24.527Z,1003.62
2016-05-29T05:38:24.497Z,1003.6
2016-05-29T05:39:24.500Z,1003.59
2016-05-29T05:40:24.457Z,1003.6
2016-05-29T05:41:24.412Z,1003.58
2016-05-29T05:42:24.258Z,1003.6
2016-05-29T05:43:24.229Z,1003.62
2016-05-29T05:44:24.170Z,1003.59
2016-05-29T05:45:24.126Z,1003.55
2016-05-29T05:46:24.129Z,1003.6
2016-05-29T05:47:24.037Z,1003.6
2016-05-29T05:48:24.009Z,1003.59
2016-05-29T05:49:32.965Z,1003.58
2016-05-29T05:50:23.904Z,1003.54
2016-05-29T05:51:23.908Z,1003.55
2016-05-29T05:52:23.817Z,1003.55
2016-05-29T05:53:23.772Z,1003.55
2016-05-29T05:54:23.729Z,1003.55
2016-05-29T05:55:23.684Z,1003.56
2016-05-29T05:56:23.639Z,1003.56
2016-05-29T05:57:23.595Z,1003.55
2016-05-29T05:58:23.551Z,1003.52
2016-05-29T05:59:23.508Z,1003.54
2016-05-29T06:00:23.447Z,1003.55
2016-05-29T06:01:23.419Z,1003.55
2016-05-29T06:02:23.374Z,1003.59
2016-05-29T06:03:23.331Z,1003.59
2016-05-29T06:04:26.302Z,1003.55
2016-05-29T06:05:23.930Z,1003.57
2016-05-29T06:06:23.197Z,1003.54
2016-05-29T06:07:23.155Z,1003.55
2016-05-29T06:08:23.110Z,1003.53
2016-05-29T06:09:23.252Z,1003.52
2016-05-29T06:10:23.021Z,1003.49
2016-05-29T06:11:22.977Z,1003.46
2016-05-29T06:12:22.933Z,1003.46
2016-05-29T06:13:22.888Z,1003.48
2016-05-29T06:14:22.844Z,1003.44
2016-05-29T06:15:22.801Z,1003.45
2016-05-29T06:16:22.740Z,1003.45
2016-05-29T06:17:22.696Z,1003.42
2016-05-29T06:18:22.668Z,1003.45
2016-05-29T06:19:22.624Z,1003.41
2016-05-29T06:20:22.579Z,1003.45
2016-05-29T06:21:22.551Z,1003.42
2016-05-29T06:22:22.475Z,1003.42
2016-05-29T06:23:22.447Z,1003.42
2016-05-29T06:24:22.403Z,1003.4
2016-05-29T06:25:22.342Z,1003.41
2016-05-29T06:26:22.314Z,1003.41
2016-05-29T06:27:22.254Z,1003.4
2016-05-29T06:28:22.226Z,1003.41
2016-05-29T06:29:22.369Z,1003.34
2016-05-29T06:30:22.137Z,1003.37
2016-05-29T06:31:22.078Z,1003.34
2016-05-29T06:32:22.050Z,1003.34
2016-05-29T06:33:22.005Z,1003.37
2016-05-29T06:34:21.944Z,1003.38
2016-05-29T06:35:21.917Z,1003.4
2016-05-29T06:36:21.872Z,1003.42
2016-05-29T06:37:21.813Z,1003.4
2016-05-29T06:38:24.783Z,1003.42
2016-05-29T06:39:21.725Z,1003.42
2016-05-29T06:40:21.696Z,1003.41
2016-05-29T06:41:21.651Z,1003.41
2016-05-29T06:42:21.608Z,1003.4
2016-05-29T06:43:21.563Z,1003.38
2016-05-29T06:44:24.518Z,1003.36
2016-05-29T06:45:21.662Z,1003.31
2016-05-29T06:46:24.478Z,1003.33
2016-05-29T06:47:21.574Z,1003.26
2016-05-29T06:48:21.326Z,1003.28
2016-05-29T06:49:21.282Z,1003.23
2016-05-29T06:50:21.237Z,1003.23
2016-05-29T06:51:21.210Z,1003.25
2016-05-29T06:52:24.446Z,1003.23
2016-05-29T06:53:21.106Z,1003.28
2016-05-29T06:54:21.077Z,1003.24
2016-05-29T06:55:21.034Z,1003.26
2016-05-29T06:56:21.192Z,1003.26
2016-05-29T06:57:20.944Z,1003.26
2016-05-29T06:58:20.901Z,1003.26
2016-05-29T06:59:20.840Z,1003.29
2016-05-29T07:00:20.797Z,1003.31
2016-05-29T07:01:20.767Z,1003.33
2016-05-29T07:02:20.723Z,1003.33
2016-05-29T07:03:20.680Z,1003.33
2016-05-29T07:04:20.650Z,1003.31
2016-05-29T07:05:24.263Z,1003.32
2016-05-29T07:06:23.563Z,1003.29
2016-05-29T07:07:23.503Z,1003.28
2016-05-29T07:08:20.646Z,1003.26
2016-05-29T07:09:20.414Z,1003.29
2016-05-29T07:10:20.355Z,1003.31
2016-05-29T07:11:20.310Z,1003.35
2016-05-29T07:12:20.266Z,1003.37
2016-05-29T07:13:20.222Z,1003.36
2016-05-29T07:14:20.177Z,1003.4
2016-05-29T07:15:20.149Z,1003.4
2016-05-29T07:16:20.105Z,1003.36
2016-05-29T07:17:20.060Z,1003.37
2016-05-29T07:18:20.016Z,1003.34
2016-05-29T07:19:19.973Z,1003.37
2016-05-29T07:20:19.929Z,1003.36
2016-05-29T07:21:19.884Z,1003.36
2016-05-29T07:22:19.840Z,1003.33
2016-05-29T07:23:19.811Z,1003.29
2016-05-29T07:24:19.751Z,1003.31
2016-05-29T07:25:22.910Z,1003.29
2016-05-29T07:26:19.663Z,1003.28
2016-05-29T07:27:19.619Z,1003.29
2016-05-29T07:28:19.559Z,1003.31
2016-05-29T07:29:19.531Z,1003.29
2016-05-29T07:30:19.486Z,1003.31
2016-05-29T07:31:19.426Z,1003.24
2016-05-29T07:32:19.398Z,1003.26
2016-05-29T07:33:19.353Z,1003.32
2016-05-29T07:34:19.310Z,1003.26
2016-05-29T07:35:19.547Z,1003.29
2016-05-29T07:36:19.206Z,1003.26
2016-05-29T07:37:19.177Z,1003.25
2016-05-29T07:38:19.132Z,1003.31
2016-05-29T07:39:19.073Z,1003.25
2016-05-29T07:40:19.044Z,1003.26
2016-05-29T07:41:19.000Z,1003.32
2016-05-29T07:42:18.940Z,1003.27
2016-05-29T07:43:18.913Z,1003.25
2016-05-29T07:44:18.868Z,1003.31
2016-05-29T07:45:18.823Z,1003.3
2016-05-29T07:46:18.780Z,1003.32
2016-05-29T07:47:18.735Z,1003.34
2016-05-29T07:48:18.691Z,1003.36
2016-05-29T07:49:18.646Z,1003.34
2016-05-29T07:50:18.618Z,1003.36
2016-05-29T07:51:18.543Z,1003.33
2016-05-29T07:52:18.514Z,1003.3
2016-05-29T07:53:18.470Z,1003.3
2016-05-29T07:54:18.426Z,1003.34
2016-05-29T07:55:18.382Z,1003.29
2016-05-29T07:56:18.353Z,1003.35
2016-05-29T07:57:18.293Z,1003.39
2016-05-29T07:58:18.249Z,1003.35
2016-05-29T07:59:18.205Z,1003.37
2016-05-29T08:00:18.161Z,1003.37
2016-05-29T08:01:18.117Z,1003.37
2016-05-29T08:02:18.073Z,1003.38
2016-05-29T08:03:18.059Z,1003.36
2016-05-29T08:04:17.999Z,1003.31
2016-05-29T08:05:17.939Z,1003.31
2016-05-29T08:06:17.895Z,1003.32
2016-05-29T08:07:20.867Z,1003.29
2016-05-29T08:08:17.807Z,1003.26
2016-05-29T08:09:17.778Z,1003.24
2016-05-29T08:10:20.735Z,1003.27
2016-05-29T08:11:17.675Z,1003.27
2016-05-29T08:12:17.630Z,1003.31
2016-05-29T08:13:17.586Z,1003.29
2016-05-29T08:14:17.541Z,1003.3
2016-05-29T08:15:17.514Z,1003.36
2016-05-29T08:16:17.469Z,1003.31
2016-05-29T08:17:17.409Z,1003.25
2016-05-29T08:18:17.382Z,1003.23
2016-05-29T08:19:17.337Z,1003.28
2016-05-29T08:20:17.277Z,1003.25
2016-05-29T08:21:17.654Z,1003.22
2016-05-29T08:22:17.205Z,1003.29
2016-05-29T08:23:17.160Z,1003.23
2016-05-29T08:24:17.116Z,1003.15
2016-05-29T08:25:17.071Z,1003.19
2016-05-29T08:26:17.028Z,1003.21
2016-05-29T08:27:17.006Z,1003.2
2016-05-29T08:28:16.984Z,1003.21
2016-05-29T08:29:16.962Z,1003.21
2016-05-29T08:30:16.939Z,1003.19
2016-05-29T08:31:16.918Z,1003.18
2016-05-29T08:32:19.897Z,1003.18
2016-05-29T08:33:16.845Z,1003.17
2016-05-29T08:34:16.810Z,1003.16
2016-05-29T08:35:16.774Z,1003.18
2016-05-29T08:36:16.753Z,1003.24
2016-05-29T08:37:16.712Z,1003.26
2016-05-29T08:38:16.655Z,1003.19
2016-05-29T08:39:16.630Z,1003.21
2016-05-29T08:40:16.589Z,1003.19
2016-05-29T08:41:16.563Z,1003.16
2016-05-29T08:42:16.504Z,1003.18
2016-05-29T08:43:16.492Z,1003.15
2016-05-29T08:44:16.417Z,1003.13
2016-05-29T08:45:16.405Z,1003.1
2016-05-29T08:46:16.330Z,1003.12
2016-05-29T08:47:16.286Z,1003.25
2016-05-29T08:48:16.243Z,1003.13
2016-05-29T08:49:16.199Z,1003.1
2016-05-29T08:50:16.171Z,1003.13
2016-05-29T08:51:16.158Z,1003.13
2016-05-29T08:52:16.271Z,1003.14
2016-05-29T08:53:16.305Z,1003.16
2016-05-29T08:54:15.980Z,1003.14
2016-05-29T08:55:15.952Z,1003.11
2016-05-29T08:56:15.908Z,1003.16
2016-05-29T08:57:15.864Z,1003.18
2016-05-29T08:58:15.804Z,1003.17
2016-05-29T08:59:15.775Z,1003.19
2016-05-29T09:00:15.731Z,1003.19
2016-05-29T09:01:15.687Z,1003.19
2016-05-29T09:02:15.643Z,1003.25
2016-05-29T09:03:15.739Z,1003.27
2016-05-29T09:04:15.555Z,1003.23
2016-05-29T09:05:15.525Z,1003.27
2016-05-29T09:06:15.497Z,1003.26
2016-05-29T09:07:15.422Z,1003.19
2016-05-29T09:08:15.394Z,1003.22
2016-05-29T09:09:15.364Z,1003.12
2016-05-29T09:10:15.305Z,1003.15
2016-05-29T09:11:15.260Z,1003.14
2016-05-29T09:12:15.217Z,1003.19
2016-05-29T09:13:15.172Z,1003.23
2016-05-29T09:14:15.128Z,1003.14
2016-05-29T09:15:15.084Z,1003.12
2016-05-29T09:16:18.071Z,1003.17
2016-05-29T09:17:14.996Z,1003.09
2016-05-29T09:18:16.935Z,1003.1
2016-05-29T09:19:14.907Z,1003.12
2016-05-29T09:20:14.879Z,1003.18
2016-05-29T09:21:14.819Z,1003.12
2016-05-29T09:22:17.806Z,1003.02
2016-05-29T09:23:14.949Z,1003.21
2016-05-29T09:24:14.702Z,1003.17
2016-05-29T09:25:14.673Z,1003.18
2016-05-29T09:26:14.629Z,1003.11
2016-05-29T09:27:14.585Z,1003.04
2016-05-29T09:28:14.525Z,1003.06
2016-05-29T09:29:14.481Z,1003.01
2016-05-29T09:30:14.453Z,1003.05
2016-05-29T09:31:14.408Z,1003.08
2016-05-29T09:32:14.364Z,1003.1
2016-05-29T09:33:14.320Z,1003.11
2016-05-29T09:34:14.276Z,1003.13
2016-05-29T09:35:14.231Z,1003.1
2016-05-29T09:36:14.187Z,1003.15
2016-05-29T09:37:14.159Z,1003.19
2016-05-29T09:38:17.114Z,1003.08
2016-05-29T09:39:17.070Z,1003.04
2016-05-29T09:40:14.010Z,1003.07
2016-05-29T09:41:13.982Z,1002.98
2016-05-29T09:42:13.938Z,1003.08
2016-05-29T09:43:14.097Z,1003.02
2016-05-29T09:44:13.849Z,1002.97
2016-05-29T09:45:13.805Z,1003.02
2016-05-29T09:46:13.761Z,1003.02
2016-05-29T09:47:13.717Z,1002.98
2016-05-29T09:48:13.673Z,1002.99
2016-05-29T09:49:16.644Z,1003.01
2016-05-29T09:50:13.600Z,1002.99
2016-05-29T09:51:13.556Z,1002.99
2016-05-29T09:52:13.699Z,1002.98
2016-05-29T09:53:13.467Z,1003
2016-05-29T09:54:13.424Z,1003.01
2016-05-29T09:55:13.379Z,1002.99
2016-05-29T09:56:13.335Z,1002.99
2016-05-29T09:57:13.290Z,1002.95
2016-05-29T09:58:16.262Z,1003.01
2016-05-29T09:59:16.218Z,1002.97
2016-05-29T10:00:13.158Z,1002.95
2016-05-29T10:01:13.130Z,1002.97
2016-05-29T10:02:13.086Z,1002.97
2016-05-29T10:03:13.057Z,1002.93
2016-05-29T10:04:15.997Z,1002.95
2016-05-29T10:05:12.952Z,1002.94
2016-05-29T10:06:12.909Z,1002.98
2016-05-29T10:07:12.864Z,1002.92
2016-05-29T10:08:12.836Z,1002.9
2016-05-29T10:09:12.791Z,1002.9
2016-05-29T10:10:13.248Z,1002.89
2016-05-29T10:11:12.703Z,1002.84
2016-05-29T10:12:12.659Z,1002.95
2016-05-29T10:13:12.615Z,1002.89
2016-05-29T10:14:12.571Z,1002.89
2016-05-29T10:15:12.527Z,1002.87
2016-05-29T10:16:12.482Z,1002.89
2016-05-29T10:17:12.454Z,1002.91
2016-05-29T10:18:12.409Z,1002.85
2016-05-29T10:19:12.366Z,1002.85
2016-05-29T10:20:12.321Z,1002.86
2016-05-29T10:21:12.277Z,1002.8
2016-05-29T10:22:12.435Z,1002.78
2016-05-29T10:23:12.393Z,1002.8
2016-05-29T10:24:12.145Z,1002.87
2016-05-29T10:25:12.100Z,1002.82
2016-05-29T10:26:12.072Z,1002.79
2016-05-29T10:27:12.028Z,1002.8
2016-05-29T10:28:11.984Z,1002.85
2016-05-29T10:29:11.939Z,1002.78
2016-05-29T10:30:11.895Z,1002.92
2016-05-29T10:31:11.851Z,1002.79
2016-05-29T10:32:11.806Z,1002.8
2016-05-29T10:33:11.762Z,1002.86
2016-05-29T10:34:11.734Z,1002.79
2016-05-29T10:35:11.878Z,1002.8
2016-05-29T10:36:11.645Z,1002.82
2016-05-29T10:37:11.586Z,1002.76
2016-05-29T10:38:11.557Z,1002.78
2016-05-29T10:39:11.513Z,1002.7
2016-05-29T10:40:11.469Z,1002.73
2016-05-29T10:41:11.425Z,1002.68
2016-05-29T10:42:11.396Z,1002.61
2016-05-29T10:43:11.336Z,1002.62
2016-05-29T10:44:11.292Z,1002.65
2016-05-29T10:45:11.247Z,1002.68
2016-05-29T10:46:11.219Z,1002.7
2016-05-29T10:47:11.175Z,1002.63
2016-05-29T10:48:11.131Z,1002.69
2016-05-29T10:49:11.290Z,1002.67
2016-05-29T10:50:11.043Z,1002.67
2016-05-29T10:51:11.014Z,1002.69
2016-05-29T10:52:10.954Z,1002.71
2016-05-29T10:53:10.910Z,1002.68
2016-05-29T10:54:10.866Z,1002.78
2016-05-29T10:55:10.821Z,1002.71
2016-05-29T10:56:10.981Z,1002.66
2016-05-29T10:57:10.734Z,1002.71
2016-05-29T10:58:10.689Z,1002.63
2016-05-29T10:59:10.676Z,1002.57
2016-05-29T11:00:19.632Z,1002.61
2016-05-29T11:01:13.573Z,1002.59
2016-05-29T11:02:13.528Z,1002.63
2016-05-29T11:03:10.484Z,1002.65
2016-05-29T11:04:10.456Z,1002.68
2016-05-29T11:05:13.426Z,1002.66
2016-05-29T11:06:13.804Z,1002.63
2016-05-29T11:07:10.511Z,1002.59
2016-05-29T11:08:10.481Z,1002.57
2016-05-29T11:09:13.234Z,1002.54
2016-05-29T11:10:19.222Z,1002.57
2016-05-29T11:11:10.146Z,1002.59
2016-05-29T11:12:13.102Z,1002.57
2016-05-29T11:13:13.058Z,1002.59
2016-05-29T11:14:10.013Z,1002.6
2016-05-29T11:15:10.000Z,1002.62
2016-05-29T11:16:12.924Z,1002.61
2016-05-29T11:17:12.912Z,1002.68
2016-05-29T11:18:09.836Z,1002.63
2016-05-29T11:19:09.793Z,1002.64
2016-05-29T11:20:09.748Z,1002.59
2016-05-29T11:21:09.704Z,1002.61
2016-05-29T11:22:09.660Z,1002.54
2016-05-29T11:23:09.616Z,1002.56
2016-05-29T11:24:09.571Z,1002.57
2016-05-29T11:25:09.527Z,1002.51
2016-05-29T11:26:09.498Z,1002.51
2016-05-29T11:27:09.440Z,1002.55
2016-05-29T11:28:09.410Z,1002.51
2016-05-29T11:29:09.365Z,1002.44
2016-05-29T11:30:09.323Z,1002.48
2016-05-29T11:31:09.278Z,1002.5
2016-05-29T11:32:09.234Z,1002.47
2016-05-29T11:33:09.173Z,1002.49
2016-05-29T11:34:09.145Z,1002.46
2016-05-29T11:35:09.101Z,1002.43
2016-05-29T11:36:09.776Z,1002.49
2016-05-29T11:37:08.997Z,1002.48
2016-05-29T11:38:08.969Z,1002.45
2016-05-29T11:39:08.924Z,1002.48
2016-05-29T11:40:08.881Z,1002.43
2016-05-29T11:41:08.836Z,1002.41
2016-05-29T11:42:08.792Z,1002.46
2016-05-29T11:43:08.747Z,1002.51
2016-05-29T11:44:08.703Z,1002.42
2016-05-29T11:45:08.659Z,1002.48
2016-05-29T11:46:08.630Z,1002.42
2016-05-29T11:47:08.571Z,1002.37
2016-05-29T11:48:08.527Z,1002.37
2016-05-29T11:49:08.482Z,1002.39
2016-05-29T11:50:08.454Z,1002.29
2016-05-29T11:51:08.613Z,1002.24
2016-05-29T11:52:08.365Z,1002.26
2016-05-29T11:53:11.540Z,1002.24
2016-05-29T11:54:11.293Z,1002.25
2016-05-29T11:55:11.233Z,1002.26
2016-05-29T11:56:08.188Z,1002.36
2016-05-29T11:57:08.145Z,1002.28
2016-05-29T11:58:08.101Z,1002.33
2016-05-29T11:59:08.071Z,1002.35
2016-05-29T12:00:08.012Z,1002.31
2016-05-29T12:01:07.968Z,1002.31
2016-05-29T12:02:11.158Z,1002.32
2016-05-29T12:03:10.895Z,1002.35
2016-05-29T12:04:07.851Z,1002.39
2016-05-29T12:05:10.807Z,1002.25
2016-05-29T12:06:07.762Z,1002.29
2016-05-29T12:07:07.718Z,1002.31